Time;durP1;ratioP1;P1;durP2;ratioP2;P2;SDS_P1;SDS_P2;PMS_P1;PMS_P2;Temp;Humidity;BMP_temperature;BMP_pressure;BME280_temperature;BME280_humidity;BME280_pressure;Samples;Min_cycle;Max_cycle;Signal;HPM_P1;HPM_P2
2022/10/25 00:00:12;;;;;;;;;1.00;1.00;;;;;;;;5031034;28;45535;-78
2022/10/25 00:02:38;;;;;;;;;3.00;1.00;;;;;;;;5016837;28;45554;-77
2022/10/25 00:05:03;;;;;;;;;0.00;0.00;;;;;;;;5032516;28;45498;-78
2022/10/25 00:07:29;;;;;;;;;2.75;1.75;;;;;;;;5034746;28;46289;-77
2022/10/25 00:09:54;;;;;;;;;2.00;2.00;;;;;;;;5016557;28;45682;-77
2022/10/25 00:12:19;;;;;;;;;2.00;1.00;;;;;;;;5028486;28;45331;-77
2022/10/25 00:14:44;;;;;;;;;1.00;0.00;;;;;;;;5028804;28;45724;-79
2022/10/25 00:17:10;;;;;;;;;2.00;0.67;;;;;;;;5008389;28;47007;-78
2022/10/25 00:19:35;;;;;;;;;1.00;0.00;;;;;;;;5029404;28;45654;-76
2022/10/25 00:22:00;;;;;;;;;2.00;1.00;;;;;;;;5024336;28;45708;-78
2022/10/25 00:24:26;;;;;;;;;0.67;0.67;;;;;;;;5031397;28;45633;-75
2022/10/25 00:26:51;;;;;;;;;1.00;1.00;;;;;;;;5019599;28;46490;-77
2022/10/25 00:29:17;;;;;;;;;3.33;0.33;;;;;;;;5027942;28;46425;-77
2022/10/25 00:31:42;;;;;;;;;1.00;1.00;;;;;;;;5022039;28;45822;-77
2022/10/25 00:34:08;;;;;;;;;4.00;1.00;;;;;;;;5004461;28;45363;-76
2022/10/25 00:36:33;;;;;;;;;1.33;1.00;;;;;;;;4997206;28;47580;-77
2022/10/25 00:38:58;;;;;;;;;0.00;0.00;;;;;;;;5027609;28;45965;-76
2022/10/25 00:41:25;;;;;;;;;3.00;1.00;;;;;;;;5012385;28;45763;-76
2022/10/25 00:43:55;;;;;;;;;0.00;0.00;;;;;;;;5019569;28;45547;-78
2022/10/25 00:46:26;;;;;;;;;4.00;0.67;;;;;;;;5034368;28;45854;-76
2022/10/25 00:48:58;;;;;;;;;4.33;1.00;;;;;;;;5026670;28;45523;-77
2022/10/25 00:51:26;;;;;;;;;2.00;1.00;;;;;;;;5040460;28;45458;-76
2022/10/25 00:53:51;;;;;;;;;1.00;0.00;;;;;;;;5021034;28;45406;-74
2022/10/25 00:56:22;;;;;;;;;2.33;2.00;;;;;;;;5030740;28;46288;-76
2022/10/25 00:58:49;;;;;;;;;3.00;2.00;;;;;;;;5032025;28;45519;-76
2022/10/25 01:01:15;;;;;;;;;2.00;1.00;;;;;;;;5019887;28;45788;-75
2022/10/25 01:03:43;;;;;;;;;1.00;0.00;;;;;;;;5026179;28;45436;-76
2022/10/25 01:06:11;;;;;;;;;1.00;1.00;;;;;;;;5022026;28;46335;-75
2022/10/25 01:08:37;;;;;;;;;2.00;0.33;;;;;;;;5004009;28;45458;-76
2022/10/25 01:11:02;;;;;;;;;1.00;1.00;;;;;;;;5025570;28;45383;-76
2022/10/25 01:13:28;;;;;;;;;1.67;1.67;;;;;;;;5026513;28;45406;-76
2022/10/25 01:16:09;;;;;;;;;0.33;0.33;;;;;;;;5032385;28;45895;-77
2022/10/25 01:18:45;;;;;;;;;1.00;1.00;;;;;;;;5030841;28;45554;-75
2022/10/25 01:21:25;;;;;;;;;4.00;1.00;;;;;;;;5028250;28;45392;-76
2022/10/25 01:24:04;;;;;;;;;1.67;0.67;;;;;;;;5022447;28;45796;-76
2022/10/25 01:26:47;;;;;;;;;2.00;0.00;;;;;;;;5034489;28;45787;-76
2022/10/25 01:29:19;;;;;;;;;0.00;0.00;;;;;;;;5021678;28;45842;-76
2022/10/25 01:31:44;;;;;;;;;0.33;0.33;;;;;;;;5011969;28;45879;-75
2022/10/25 01:34:13;;;;;;;;;3.33;2.00;;;;;;;;5038018;28;45419;-76
2022/10/25 01:36:45;;;;;;;;;4.00;1.67;;;;;;;;5022550;28;45882;-78
2022/10/25 01:39:17;;;;;;;;;1.67;1.33;;;;;;;;5012543;28;45443;-76
2022/10/25 01:41:45;;;;;;;;;3.00;2.00;;;;;;;;5024440;28;45892;-76
2022/10/25 01:44:13;;;;;;;;;4.00;2.00;;;;;;;;5029487;28;45758;-77
2022/10/25 01:46:44;;;;;;;;;3.75;1.25;;;;;;;;5033840;28;45388;-76
2022/10/25 01:49:13;;;;;;;;;2.67;2.67;;;;;;;;5027668;28;45735;-75
2022/10/25 01:51:38;;;;;;;;;0.00;0.00;;;;;;;;5027374;28;45694;-77
2022/10/25 01:54:16;;;;;;;;;1.33;0.33;;;;;;;;5031669;28;45538;-75
2022/10/25 01:56:46;;;;;;;;;3.00;1.00;;;;;;;;5030745;28;45468;-76
2022/10/25 01:59:29;;;;;;;;;0.33;0.00;;;;;;;;5019037;28;45384;-76
2022/10/25 02:02:13;;;;;;;;;2.75;2.75;;;;;;;;5011347;28;44917;-76
2022/10/25 02:04:57;;;;;;;;;1.00;1.00;;;;;;;;5010575;28;45726;-75
2022/10/25 02:07:26;;;;;;;;;2.00;2.00;;;;;;;;5009668;28;45434;-76
2022/10/25 02:09:58;;;;;;;;;0.33;0.33;;;;;;;;5011357;28;45634;-77
2022/10/25 02:12:26;;;;;;;;;2.33;1.00;;;;;;;;4999492;28;45530;-76
2022/10/25 02:15:07;;;;;;;;;0.67;0.67;;;;;;;;5013247;28;45458;-75
2022/10/25 02:17:35;;;;;;;;;1.67;0.00;;;;;;;;5012760;28;45938;-77
2022/10/25 02:20:03;;;;;;;;;3.00;1.00;;;;;;;;5013588;28;45683;-76
2022/10/25 02:22:31;;;;;;;;;1.00;1.00;;;;;;;;4994730;28;45867;-77
2022/10/25 02:24:56;;;;;;;;;1.67;0.33;;;;;;;;4995019;28;45353;-76
2022/10/25 02:27:23;;;;;;;;;4.00;1.33;;;;;;;;5012989;28;45906;-77
2022/10/25 02:29:49;;;;;;;;;3.00;0.00;;;;;;;;5012577;28;45518;-78
2022/10/25 02:32:14;;;;;;;;;1.00;1.00;;;;;;;;4995659;28;45420;-76
2022/10/25 02:34:40;;;;;;;;;0.67;0.67;;;;;;;;5012730;28;45815;-77
2022/10/25 02:37:05;;;;;;;;;2.00;2.00;;;;;;;;5013389;28;45754;-77
2022/10/25 02:39:31;;;;;;;;;1.00;1.00;;;;;;;;5013700;28;45415;-76
2022/10/25 02:41:57;;;;;;;;;2.33;1.00;;;;;;;;5016107;28;45353;-77
2022/10/25 02:44:22;;;;;;;;;2.67;0.67;;;;;;;;4994080;28;46029;-77
2022/10/25 02:46:47;;;;;;;;;2.00;0.33;;;;;;;;5012646;28;46982;-77
2022/10/25 02:49:13;;;;;;;;;2.00;2.00;;;;;;;;5004227;28;45831;-77
2022/10/25 02:51:38;;;;;;;;;1.00;1.00;;;;;;;;5008764;28;45610;-76
2022/10/25 02:54:03;;;;;;;;;2.75;0.00;;;;;;;;5015881;28;45735;-77
2022/10/25 02:56:29;;;;;;;;;1.00;1.00;;;;;;;;5014512;28;46412;-75
2022/10/25 02:58:56;;;;;;;;;0.67;0.67;;;;;;;;5008966;28;45362;-75
2022/10/25 03:01:21;;;;;;;;;1.33;1.33;;;;;;;;4998896;28;45685;-75
2022/10/25 03:03:47;;;;;;;;;2.67;1.00;;;;;;;;5005093;28;45424;-75
2022/10/25 03:06:12;;;;;;;;;1.00;0.00;;;;;;;;5010622;28;45506;-76
2022/10/25 03:08:38;;;;;;;;;0.00;0.00;;;;;;;;5015517;28;45766;-77
2022/10/25 03:11:04;;;;;;;;;3.00;1.00;;;;;;;;5002796;28;45479;-77
2022/10/25 03:13:30;;;;;;;;;0.00;0.00;;;;;;;;4994084;28;45816;-75
2022/10/25 03:15:55;;;;;;;;;1.00;1.00;;;;;;;;5010449;28;46327;-76
2022/10/25 03:18:21;;;;;;;;;4.33;1.00;;;;;;;;4997631;28;45790;-75
2022/10/25 03:20:46;;;;;;;;;3.00;1.00;;;;;;;;5011062;28;45447;-76
2022/10/25 03:23:11;;;;;;;;;0.75;0.75;;;;;;;;5015199;28;45676;-75
2022/10/25 03:25:37;;;;;;;;;1.00;1.00;;;;;;;;5006083;28;45319;-74
2022/10/25 03:28:02;;;;;;;;;0.50;0.50;;;;;;;;4988409;28;45353;-75
2022/10/25 03:30:29;;;;;;;;;0.00;0.00;;;;;;;;5018391;28;45282;-76
2022/10/25 03:32:54;;;;;;;;;3.50;1.00;;;;;;;;5003347;28;45630;-77
2022/10/25 03:35:23;;;;;;;;;1.00;1.00;;;;;;;;5015760;28;46301;-79
2022/10/25 03:37:51;;;;;;;;;0.00;0.00;;;;;;;;5008350;28;45829;-79
2022/10/25 03:40:17;;;;;;;;;3.00;0.75;;;;;;;;5008456;28;45447;-79
2022/10/25 03:42:43;;;;;;;;;2.00;0.75;;;;;;;;5011603;28;45561;-78
2022/10/25 03:45:09;;;;;;;;;2.25;0.75;;;;;;;;5010359;28;45612;-79
2022/10/25 03:47:34;;;;;;;;;2.50;1.00;;;;;;;;5002884;28;45720;-79
2022/10/25 03:50:00;;;;;;;;;3.00;1.00;;;;;;;;5011187;28;45719;-78
2022/10/25 03:52:26;;;;;;;;;0.50;0.00;;;;;;;;5006886;28;45473;-78
2022/10/25 03:54:54;;;;;;;;;0.75;0.75;;;;;;;;5011035;28;46051;-80
2022/10/25 03:57:28;;;;;;;;;1.00;1.00;;;;;;;;5011434;28;45909;-80
2022/10/25 03:59:53;;;;;;;;;2.00;1.00;;;;;;;;4993079;28;45427;-80
2022/10/25 04:02:19;;;;;;;;;1.25;1.25;;;;;;;;4990737;28;45489;-80
2022/10/25 04:04:44;;;;;;;;;0.67;0.67;;;;;;;;4991776;28;45573;-80
2022/10/25 04:07:09;;;;;;;;;0.50;0.00;;;;;;;;5012994;28;45727;-81
2022/10/25 04:09:35;;;;;;;;;1.50;1.50;;;;;;;;5003357;28;45718;-80
2022/10/25 04:12:00;;;;;;;;;2.67;1.00;;;;;;;;5013515;28;45544;-79
2022/10/25 04:14:30;;;;;;;;;3.00;1.00;;;;;;;;5018047;28;46010;-82
2022/10/25 04:16:55;;;;;;;;;0.50;0.25;;;;;;;;4997514;28;45640;-83
2022/10/25 04:19:21;;;;;;;;;2.00;1.67;;;;;;;;5009231;28;45402;-82
2022/10/25 04:21:49;;;;;;;;;2.75;0.00;;;;;;;;5030184;28;45845;-81
2022/10/25 04:24:14;;;;;;;;;1.00;1.00;;;;;;;;5021049;28;45840;-79
2022/10/25 04:26:40;;;;;;;;;2.00;1.00;;;;;;;;5019471;28;45783;-81
2022/10/25 04:29:06;;;;;;;;;1.00;0.50;;;;;;;;5020812;28;45412;-81
2022/10/25 04:31:32;;;;;;;;;1.00;1.00;;;;;;;;5018413;28;45744;-82
2022/10/25 04:33:57;;;;;;;;;0.67;0.67;;;;;;;;5005811;28;46246;-81
2022/10/25 04:36:23;;;;;;;;;1.00;1.00;;;;;;;;5010162;28;45594;-80
2022/10/25 04:38:52;;;;;;;;;2.00;1.00;;;;;;;;4993324;28;45808;-81
2022/10/25 04:41:18;;;;;;;;;1.00;1.00;;;;;;;;4986061;28;45768;-82
2022/10/25 04:43:44;;;;;;;;;1.00;1.00;;;;;;;;5013898;28;46116;-81
2022/10/25 04:46:10;;;;;;;;;2.00;0.75;;;;;;;;4997782;28;45397;-79
2022/10/25 04:48:36;;;;;;;;;0.75;0.25;;;;;;;;4990010;28;45450;-78
2022/10/25 04:51:01;;;;;;;;;0.00;0.00;;;;;;;;5004178;28;45851;-81
2022/10/25 04:53:27;;;;;;;;;1.00;1.00;;;;;;;;5003915;28;45640;-80
2022/10/25 04:56:11;;;;;;;;;1.00;0.00;;;;;;;;4996382;28;45423;-79
2022/10/25 04:58:37;;;;;;;;;3.25;0.25;;;;;;;;5002442;28;45804;-78
2022/10/25 05:01:03;;;;;;;;;0.25;0.25;;;;;;;;4994411;28;45639;-78
2022/10/25 05:03:29;;;;;;;;;1.00;1.00;;;;;;;;5006141;28;45809;-78
2022/10/25 05:05:55;;;;;;;;;1.75;1.25;;;;;;;;5019134;28;46691;-78
2022/10/25 05:08:20;;;;;;;;;2.25;1.25;;;;;;;;5008489;28;45695;-77
2022/10/25 05:10:54;;;;;;;;;1.75;0.75;;;;;;;;5016293;28;45529;-77
2022/10/25 05:13:20;;;;;;;;;0.25;0.25;;;;;;;;5015832;28;45494;-81
2022/10/25 05:15:55;;;;;;;;;3.00;3.00;;;;;;;;4995860;28;45427;-78
2022/10/25 05:18:21;;;;;;;;;1.00;1.00;;;;;;;;5001449;28;45353;-82
2022/10/25 05:20:56;;;;;;;;;0.75;0.50;;;;;;;;5020716;28;45260;-83
2022/10/25 05:23:25;;;;;;;;;3.00;1.25;;;;;;;;5007162;28;45305;-82
2022/10/25 05:26:03;;;;;;;;;6.00;3.00;;;;;;;;4994959;28;45832;-83
2022/10/25 05:28:28;;;;;;;;;4.75;3.50;;;;;;;;5011231;28;45820;-83
2022/10/25 05:34:14;;;;;;;;;2.75;1.25;;;;;;;;4962905;28;45895;-81
2022/10/25 05:36:40;;;;;;;;;3.00;2.00;;;;;;;;4995508;28;45682;-82
2022/10/25 05:39:05;;;;;;;;;2.00;1.67;;;;;;;;5004703;28;44861;-81
2022/10/25 05:41:30;;;;;;;;;1.75;1.75;;;;;;;;5016538;28;45510;-78
2022/10/25 05:43:56;;;;;;;;;2.75;1.50;;;;;;;;5011919;28;46918;-79
2022/10/25 05:46:22;;;;;;;;;2.00;2.00;;;;;;;;5001582;28;45471;-77
2022/10/25 05:48:48;;;;;;;;;3.50;2.00;;;;;;;;5008071;28;45506;-81
2022/10/25 05:51:15;;;;;;;;;4.25;2.00;;;;;;;;5007424;28;45442;-79
2022/10/25 05:53:41;;;;;;;;;1.75;1.75;;;;;;;;4994927;28;46059;-78
2022/10/25 05:56:08;;;;;;;;;2.25;2.25;;;;;;;;5015138;28;44877;-79
2022/10/25 05:58:33;;;;;;;;;2.00;2.00;;;;;;;;4998160;28;45459;-80
2022/10/25 06:00:59;;;;;;;;;3.33;2.00;;;;;;;;5015356;28;45526;-80
2022/10/25 06:03:25;;;;;;;;;2.75;2.00;;;;;;;;5016368;28;45779;-80
2022/10/25 06:05:50;;;;;;;;;3.67;2.67;;;;;;;;5013486;28;45510;-81
2022/10/25 06:08:15;;;;;;;;;7.00;4.00;;;;;;;;5013426;28;45795;-79
2022/10/25 06:10:41;;;;;;;;;3.33;2.00;;;;;;;;4985658;28;46334;-77
2022/10/25 06:13:08;;;;;;;;;4.00;2.67;;;;;;;;5009512;28;45468;-80
2022/10/25 06:15:35;;;;;;;;;4.25;1.75;;;;;;;;4984995;28;45725;-79
2022/10/25 06:18:27;;;;;;;;;5.67;3.67;;;;;;;;5014033;28;45474;-83
2022/10/25 06:21:12;;;;;;;;;2.67;1.00;;;;;;;;5001912;28;45082;-84
2022/10/25 06:23:55;;;;;;;;;2.67;2.67;;;;;;;;5006261;28;45561;-83
2022/10/25 06:27:09;;;;;;;;;1.00;0.25;;;;;;;;5012407;28;45614;-81
2022/10/25 06:29:28;;;;;;;;;2.25;2.25;;;;;;;;5012967;28;46046;-84
2022/10/25 06:32:14;;;;;;;;;4.50;2.25;;;;;;;;5011571;28;45675;-83
2022/10/25 06:34:49;;;;;;;;;2.67;2.67;;;;;;;;5017344;28;46156;-82
2022/10/25 06:37:15;;;;;;;;;3.00;2.00;;;;;;;;5018514;28;45744;-82
2022/10/25 06:39:58;;;;;;;;;4.00;2.00;;;;;;;;5021039;28;45626;-82
2022/10/25 06:42:42;;;;;;;;;2.25;1.25;;;;;;;;5009870;28;45394;-84
2022/10/25 06:45:44;;;;;;;;;4.00;3.00;;;;;;;;5012687;28;45866;-82
2022/10/25 06:48:34;;;;;;;;;5.33;3.00;;;;;;;;5013317;28;45868;-84
2022/10/25 06:54:06;;;;;;;;;4.00;3.00;;;;;;;;5003491;28;45530;-82
2022/10/25 06:56:52;;;;;;;;;5.00;4.00;;;;;;;;5025530;28;45637;-85
2022/10/25 06:59:19;;;;;;;;;5.33;3.00;;;;;;;;5008056;28;44829;-83
2022/10/25 07:01:44;;;;;;;;;3.67;3.67;;;;;;;;5008225;28;44929;-85
2022/10/25 07:04:10;;;;;;;;;2.67;2.67;;;;;;;;5012740;28;45409;-87
2022/10/25 07:06:36;;;;;;;;;4.33;2.00;;;;;;;;5008174;28;47052;-87
2022/10/25 07:09:03;;;;;;;;;3.50;3.50;;;;;;;;5009178;28;45629;-88
2022/10/25 07:11:30;;;;;;;;;3.50;2.25;;;;;;;;5030153;28;45294;-87
2022/10/25 07:13:59;;;;;;;;;2.00;2.00;;;;;;;;5006949;28;45429;-88
2022/10/25 07:16:28;;;;;;;;;1.25;1.00;;;;;;;;5010890;28;47039;-90
2022/10/25 07:18:59;;;;;;;;;1.67;1.67;;;;;;;;5013878;28;44768;-88
2022/10/25 07:21:26;;;;;;;;;1.00;1.00;;;;;;;;5021764;28;45422;-89
2022/10/25 07:23:52;;;;;;;;;3.33;2.00;;;;;;;;5012115;28;45610;-88
2022/10/25 07:26:19;;;;;;;;;1.50;1.25;;;;;;;;5015803;28;47013;-87
2022/10/25 07:28:45;;;;;;;;;2.75;2.75;;;;;;;;5019766;28;45341;-86
2022/10/25 07:31:13;;;;;;;;;8.33;5.00;;;;;;;;5025964;28;45412;-87
2022/10/25 07:33:39;;;;;;;;;4.00;1.00;;;;;;;;5005474;28;46091;-86
2022/10/25 07:36:04;;;;;;;;;5.75;3.00;;;;;;;;4998159;28;45532;-84
2022/10/25 07:38:30;;;;;;;;;2.00;2.00;;;;;;;;5016245;28;45773;-81
2022/10/25 07:40:56;;;;;;;;;2.75;1.50;;;;;;;;5013669;28;45602;-85
2022/10/25 07:43:22;;;;;;;;;1.50;1.25;;;;;;;;5003077;28;46189;-85
2022/10/25 07:45:51;;;;;;;;;3.50;2.00;;;;;;;;5005455;28;44908;-84
2022/10/25 07:48:16;;;;;;;;;2.50;2.50;;;;;;;;5029739;28;45408;-84
2022/10/25 07:50:41;;;;;;;;;4.25;2.25;;;;;;;;5009672;28;45387;-83
2022/10/25 07:53:07;;;;;;;;;2.00;2.00;;;;;;;;5016980;28;45376;-84
2022/10/25 07:55:32;;;;;;;;;3.50;2.50;;;;;;;;5003371;28;46931;-85
2022/10/25 07:58:04;;;;;;;;;3.25;2.00;;;;;;;;5012479;28;45502;-84
2022/10/25 08:00:29;;;;;;;;;2.00;2.00;;;;;;;;5030575;28;45451;-84
2022/10/25 08:02:55;;;;;;;;;4.00;2.00;;;;;;;;5006024;28;45985;-84
2022/10/25 08:05:20;;;;;;;;;3.00;1.25;;;;;;;;5013271;28;47933;-84
2022/10/25 08:07:46;;;;;;;;;3.25;2.50;;;;;;;;5025730;28;45449;-85
2022/10/25 08:10:13;;;;;;;;;1.00;1.00;;;;;;;;5021566;28;45844;-85
2022/10/25 08:12:38;;;;;;;;;4.75;2.00;;;;;;;;5023453;28;45424;-85
2022/10/25 08:15:04;;;;;;;;;0.50;0.50;;;;;;;;5001749;28;46576;-86
2022/10/25 08:17:30;;;;;;;;;2.00;2.00;;;;;;;;5024560;28;45532;-82
2022/10/25 08:19:55;;;;;;;;;2.50;1.00;;;;;;;;5003626;28;45380;-83
2022/10/25 08:22:21;;;;;;;;;2.25;2.25;;;;;;;;5005337;28;45885;-82
2022/10/25 08:24:46;;;;;;;;;3.00;2.00;;;;;;;;5011593;28;46197;-85
2022/10/25 08:27:12;;;;;;;;;1.50;1.50;;;;;;;;5015279;28;45358;-84
2022/10/25 08:29:57;;;;;;;;;10.00;4.00;;;;;;;;5003443;28;45806;-85
2022/10/25 08:32:23;;;;;;;;;2.00;2.00;;;;;;;;5019722;28;45689;-84
2022/10/25 08:34:48;;;;;;;;;0.75;0.50;;;;;;;;5010004;28;47532;-83
2022/10/25 08:37:13;;;;;;;;;3.50;2.00;;;;;;;;5002648;28;45420;-85
2022/10/25 08:39:42;;;;;;;;;5.50;1.00;;;;;;;;5015068;28;45641;-79
2022/10/25 08:42:18;;;;;;;;;2.75;2.75;;;;;;;;5016724;28;45818;-78
2022/10/25 08:44:58;;;;;;;;;3.00;3.00;;;;;;;;4996541;28;46780;-80
2022/10/25 08:47:37;;;;;;;;;1.25;1.25;;;;;;;;5011773;28;45286;-86
2022/10/25 08:50:13;;;;;;;;;2.75;1.75;;;;;;;;4995842;28;45716;-89
2022/10/25 08:52:44;;;;;;;;;3.25;1.50;;;;;;;;5009915;28;46002;-83
2022/10/25 08:55:18;;;;;;;;;3.00;2.00;;;;;;;;5010263;28;47264;-79
2022/10/25 08:57:45;;;;;;;;;1.50;0.75;;;;;;;;4994321;28;45627;-83
2022/10/25 09:00:21;;;;;;;;;3.00;1.00;;;;;;;;5016680;28;45436;-89
2022/10/25 09:02:56;;;;;;;;;1.75;1.25;;;;;;;;4989560;28;46577;-81
2022/10/25 09:05:40;;;;;;;;;0.75;0.75;;;;;;;;4990614;28;45766;-84
2022/10/25 09:08:14;;;;;;;;;2.00;1.00;;;;;;;;4987343;28;45438;-80
2022/10/25 09:10:49;;;;;;;;;1.50;1.25;;;;;;;;4989446;28;45568;-79
2022/10/25 09:13:18;;;;;;;;;2.00;1.00;;;;;;;;4988906;28;45732;-80
2022/10/25 09:16:12;;;;;;;;;3.00;0.00;;;;;;;;4980052;28;47160;-82
2022/10/25 09:18:37;;;;;;;;;0.00;0.00;;;;;;;;4981332;28;46009;-81
2022/10/25 09:21:04;;;;;;;;;1.00;1.00;;;;;;;;4988459;28;45444;-81
2022/10/25 09:23:31;;;;;;;;;2.00;1.00;;;;;;;;4988949;28;45804;-83
2022/10/25 09:26:05;;;;;;;;;0.00;0.00;;;;;;;;5006038;28;47513;-81
2022/10/25 09:28:33;;;;;;;;;2.00;2.00;;;;;;;;4987555;28;45780;-81
2022/10/25 09:31:01;;;;;;;;;1.25;0.25;;;;;;;;4993569;28;45872;-81
2022/10/25 09:33:29;;;;;;;;;1.00;1.00;;;;;;;;4995746;28;45424;-81
2022/10/25 09:35:56;;;;;;;;;0.40;0.20;;;;;;;;5007532;28;45673;-83
2022/10/25 09:38:24;;;;;;;;;0.00;0.00;;;;;;;;4990350;28;45468;-80
2022/10/25 09:40:55;;;;;;;;;0.25;0.25;;;;;;;;5001946;28;45722;-81
2022/10/25 09:43:26;;;;;;;;;0.00;0.00;;;;;;;;5014978;28;45742;-79
2022/10/25 09:46:03;;;;;;;;;1.00;1.00;;;;;;;;5019532;28;45432;-79
2022/10/25 09:48:42;;;;;;;;;0.80;0.00;;;;;;;;5014563;28;45632;-80
2022/10/25 09:51:17;;;;;;;;;0.00;0.00;;;;;;;;5009424;28;45464;-79
2022/10/25 09:53:43;;;;;;;;;0.00;0.00;;;;;;;;5012910;28;45543;-80
2022/10/25 09:56:08;;;;;;;;;0.00;0.00;;;;;;;;5013978;28;45356;-78
2022/10/25 09:58:37;;;;;;;;;2.00;0.25;;;;;;;;5014374;28;45450;-78
2022/10/25 10:01:10;;;;;;;;;1.00;1.00;;;;;;;;5014075;28;45439;-80
2022/10/25 10:03:36;;;;;;;;;1.00;0.50;;;;;;;;5007805;28;45756;-79
2022/10/25 10:06:03;;;;;;;;;0.75;0.00;;;;;;;;4996009;28;46761;-80
2022/10/25 10:08:31;;;;;;;;;3.00;1.00;;;;;;;;5013906;28;45539;-81
2022/10/25 10:10:56;;;;;;;;;2.00;0.00;;;;;;;;5010559;28;45724;-79
2022/10/25 10:13:27;;;;;;;;;0.00;0.00;;;;;;;;5015386;28;45610;-80
2022/10/25 10:15:53;;;;;;;;;0.00;0.00;;;;;;;;5010261;28;45795;-81
2022/10/25 10:18:42;;;;;;;;;2.00;1.00;;;;;;;;5009327;28;45719;-83
2022/10/25 10:21:35;;;;;;;;;1.00;1.00;;;;;;;;5012442;28;45311;-82
2022/10/25 10:24:04;;;;;;;;;1.00;1.00;;;;;;;;5009829;28;45446;-78
2022/10/25 10:26:32;;;;;;;;;0.50;0.00;;;;;;;;4989255;28;45558;-80
2022/10/25 10:29:10;;;;;;;;;0.00;0.00;;;;;;;;4993459;28;45558;-81
2022/10/25 10:31:41;;;;;;;;;1.50;0.00;;;;;;;;5009809;28;45806;-79
2022/10/25 10:34:28;;;;;;;;;0.00;0.00;;;;;;;;5008786;28;45528;-80
2022/10/25 10:37:06;;;;;;;;;0.00;0.00;;;;;;;;5007911;28;45962;-80
2022/10/25 10:39:35;;;;;;;;;0.50;0.50;;;;;;;;5006972;28;44881;-81
2022/10/25 10:42:19;;;;;;;;;0.00;0.00;;;;;;;;5011492;28;45876;-82
2022/10/25 10:45:11;;;;;;;;;1.50;1.00;;;;;;;;5008545;28;46161;-79
2022/10/25 10:47:58;;;;;;;;;0.00;0.00;;;;;;;;5012681;28;45479;-81
2022/10/25 10:50:27;;;;;;;;;1.60;0.80;;;;;;;;5015228;28;45898;-77
2022/10/25 10:53:04;;;;;;;;;1.00;0.00;;;;;;;;5009591;28;46742;-78
2022/10/25 10:55:34;;;;;;;;;1.00;0.00;;;;;;;;4992001;28;46098;-79
2022/10/25 10:58:20;;;;;;;;;1.50;1.00;;;;;;;;5008414;28;46863;-79
2022/10/25 11:00:48;;;;;;;;;0.00;0.00;;;;;;;;5007766;28;45974;-78
2022/10/25 11:03:32;;;;;;;;;1.50;1.00;;;;;;;;5006820;28;45654;-77
2022/10/25 11:05:58;;;;;;;;;0.00;0.00;;;;;;;;5009372;28;45951;-79
2022/10/25 11:08:24;;;;;;;;;1.00;1.00;;;;;;;;5002982;28;45303;-78
2022/10/25 11:10:55;;;;;;;;;1.00;1.00;;;;;;;;5004973;28;45887;-79
2022/10/25 11:13:45;;;;;;;;;;;;;;;;;;;;;
2022/10/25 11:19:45;;;;;;;;;;;;;;;;;;;;;
2022/10/25 11:22:52;;;;;;;;;;;;;;;;;;;;;
2022/10/25 11:28:42;;;;;;;;;0.00;0.00;;;;;;;;4948251;28;45544;-79
2022/10/25 11:31:37;;;;;;;;;2.00;0.00;;;;;;;;4974874;28;46482;-81
2022/10/25 11:34:22;;;;;;;;;1.50;0.75;;;;;;;;4981713;28;45759;-79
2022/10/25 11:37:02;;;;;;;;;0.50;0.50;;;;;;;;5005641;28;45809;-79
2022/10/25 11:39:46;;;;;;;;;4.50;1.00;;;;;;;;5004369;28;46694;-80
2022/10/25 11:42:27;;;;;;;;;1.75;1.00;;;;;;;;5016799;28;45475;-80
2022/10/25 11:45:14;;;;;;;;;1.00;1.00;;;;;;;;5016845;28;45835;-85
2022/10/25 11:47:56;;;;;;;;;1.00;1.00;;;;;;;;5013133;28;45747;-79
2022/10/25 11:50:43;;;;;;;;;1.50;1.50;;;;;;;;5011930;28;45487;-80
2022/10/25 11:53:33;;;;;;;;;2.25;1.50;;;;;;;;4995290;28;46800;-80
2022/10/25 11:59:33;;;;;;;;;1.00;1.00;;;;;;;;5011620;28;45524;-79
2022/10/25 12:02:35;;;;;;;;;3.75;3.00;;;;;;;;5012250;28;45744;-80
2022/10/25 12:05:17;;;;;;;;;2.25;1.75;;;;;;;;5009555;28;45466;-80
2022/10/25 12:07:54;;;;;;;;;5.75;2.00;;;;;;;;5011757;28;45698;-80
2022/10/25 12:10:24;;;;;;;;;1.00;1.00;;;;;;;;5014576;28;45585;-79
2022/10/25 12:12:55;;;;;;;;;2.75;2.00;;;;;;;;4998490;28;46647;-81
2022/10/25 12:15:38;;;;;;;;;1.50;1.50;;;;;;;;5012179;28;46434;-79
2022/10/25 12:18:05;;;;;;;;;4.00;3.00;;;;;;;;5002341;28;45524;-80
2022/10/25 12:20:31;;;;;;;;;3.50;3.50;;;;;;;;4996011;28;45397;-79
2022/10/25 12:22:58;;;;;;;;;2.00;2.00;;;;;;;;5011209;28;45478;-80
2022/10/25 12:25:24;;;;;;;;;1.75;1.75;;;;;;;;4995498;28;47714;-79
2022/10/25 12:27:54;;;;;;;;;4.75;2.00;;;;;;;;5006650;28;45385;-79
2022/10/25 12:30:20;;;;;;;;;3.25;1.50;;;;;;;;5010817;28;45752;-79
2022/10/25 12:32:54;;;;;;;;;4.25;3.25;;;;;;;;5016972;28;45622;-78
2022/10/25 12:35:32;;;;;;;;;2.00;2.00;;;;;;;;5002302;28;48213;-79
2022/10/25 12:38:00;;;;;;;;;4.75;2.00;;;;;;;;5011553;28;45433;-79
2022/10/25 12:40:26;;;;;;;;;3.75;2.75;;;;;;;;5004426;28;45562;-78
2022/10/25 12:42:54;;;;;;;;;1.50;1.50;;;;;;;;4996239;28;46035;-78
2022/10/25 12:45:44;;;;;;;;;3.25;2.00;;;;;;;;5014885;28;45570;-79
2022/10/25 12:48:28;;;;;;;;;4.25;2.00;;;;;;;;4992681;28;45836;-80
2022/10/25 12:51:09;;;;;;;;;0.50;0.50;;;;;;;;5013176;28;45471;-79
2022/10/25 12:53:53;;;;;;;;;3.00;2.00;;;;;;;;5002037;28;46248;-81
2022/10/25 12:56:31;;;;;;;;;3.00;3.00;;;;;;;;5011968;28;45428;-79
2022/10/25 12:58:56;;;;;;;;;2.75;1.25;;;;;;;;4978095;28;45397;-80
2022/10/25 13:01:28;;;;;;;;;1.75;1.75;;;;;;;;5014232;28;45608;-79
2022/10/25 13:04:08;;;;;;;;;3.75;3.00;;;;;;;;4995065;28;46267;-80
2022/10/25 13:06:44;;;;;;;;;5.50;3.00;;;;;;;;5008345;28;45395;-80
2022/10/25 13:09:12;;;;;;;;;3.25;3.25;;;;;;;;4994429;28;45885;-80
2022/10/25 13:11:57;;;;;;;;;7.67;5.00;;;;;;;;5030286;28;45223;-89
2022/10/25 13:14:32;;;;;;;;;5.25;2.75;;;;;;;;5004599;28;45905;-89
2022/10/25 13:17:16;;;;;;;;;4.25;2.00;;;;;;;;5008518;28;45867;-87
2022/10/25 13:19:49;;;;;;;;;4.00;4.00;;;;;;;;5017740;28;45566;-86
2022/10/25 13:22:28;;;;;;;;;4.50;2.00;;;;;;;;5003894;28;45502;-79
2022/10/25 13:24:54;;;;;;;;;2.50;1.00;;;;;;;;5013152;28;45860;-85
2022/10/25 13:27:30;;;;;;;;;1.75;1.75;;;;;;;;5027586;28;45472;-86
2022/10/25 13:30:00;;;;;;;;;3.00;3.00;;;;;;;;4995016;28;45523;-78
2022/10/25 13:32:26;;;;;;;;;2.00;2.00;;;;;;;;4985177;28;45486;-77
2022/10/25 13:34:51;;;;;;;;;1.75;1.75;;;;;;;;5003788;28;45758;-79
2022/10/25 13:37:29;;;;;;;;;1.00;1.00;;;;;;;;5008209;28;45556;-79
2022/10/25 13:39:55;;;;;;;;;2.00;2.00;;;;;;;;5011460;28;45663;-87
2022/10/25 13:42:41;;;;;;;;;2.25;2.00;;;;;;;;5001824;28;45360;-87
2022/10/25 13:45:20;;;;;;;;;4.25;2.75;;;;;;;;5024416;28;44848;-87
2022/10/25 13:47:47;;;;;;;;;4.00;3.00;;;;;;;;5003878;28;46370;-87
2022/10/25 13:50:16;;;;;;;;;2.00;2.00;;;;;;;;5010616;28;45679;-89
2022/10/25 13:53:02;;;;;;;;;3.00;2.00;;;;;;;;5014607;28;45306;-87
2022/10/25 13:55:32;;;;;;;;;4.25;3.00;;;;;;;;5013231;28;45365;-86
2022/10/25 13:57:57;;;;;;;;;5.75;3.00;;;;;;;;5008664;28;46788;-86
2022/10/25 14:00:46;;;;;;;;;3.00;2.50;;;;;;;;5023319;28;45467;-85
2022/10/25 14:03:11;;;;;;;;;3.00;3.00;;;;;;;;5009110;28;45469;-87
2022/10/25 14:05:52;;;;;;;;;3.50;3.00;;;;;;;;5020574;28;45439;-87
2022/10/25 14:08:23;;;;;;;;;3.50;2.00;;;;;;;;5018637;28;45411;-86
2022/10/25 14:10:50;;;;;;;;;2.00;2.00;;;;;;;;5010416;28;45464;-85
2022/10/25 14:13:23;;;;;;;;;2.00;2.00;;;;;;;;5001621;28;46563;-86
2022/10/25 14:15:52;;;;;;;;;3.00;1.75;;;;;;;;4990252;28;45313;-86
2022/10/25 14:18:19;;;;;;;;;3.00;3.00;;;;;;;;4993662;28;45615;-88
2022/10/25 14:20:46;;;;;;;;;4.25;2.25;;;;;;;;5022548;28;44698;-88
2022/10/25 14:23:20;;;;;;;;;2.00;2.00;;;;;;;;5025246;28;45646;-86
2022/10/25 14:25:56;;;;;;;;;3.75;2.75;;;;;;;;5009146;28;45988;-88
2022/10/25 14:28:24;;;;;;;;;3.50;2.00;;;;;;;;5006922;28;46438;-88
2022/10/25 14:30:54;;;;;;;;;2.00;2.00;;;;;;;;5012316;28;47117;-88
2022/10/25 14:33:25;;;;;;;;;4.00;3.00;;;;;;;;5011285;28;45473;-89
2022/10/25 14:35:54;;;;;;;;;4.00;2.00;;;;;;;;5014712;28;45464;-89
2022/10/25 14:38:21;;;;;;;;;6.25;3.00;;;;;;;;5023857;28;45721;-87
2022/10/25 14:40:50;;;;;;;;;2.50;2.50;;;;;;;;5000140;28;45270;-87
2022/10/25 14:43:24;;;;;;;;;1.25;1.25;;;;;;;;5030079;28;45312;-87
2022/10/25 14:46:00;;;;;;;;;3.50;3.00;;;;;;;;5008922;28;45337;-89
2022/10/25 14:48:26;;;;;;;;;3.50;2.50;;;;;;;;5019895;28;45688;-79
2022/10/25 14:50:52;;;;;;;;;4.25;2.75;;;;;;;;5016206;28;45891;-81
2022/10/25 14:53:21;;;;;;;;;3.00;3.00;;;;;;;;5015239;28;45915;-79
2022/10/25 14:55:51;;;;;;;;;1.00;1.00;;;;;;;;5007602;28;47123;-80
2022/10/25 14:58:17;;;;;;;;;3.25;1.25;;;;;;;;5018516;28;45475;-79
2022/10/25 15:00:51;;;;;;;;;2.25;2.25;;;;;;;;5007848;28;45460;-79
2022/10/25 15:03:16;;;;;;;;;4.50;2.25;;;;;;;;4999022;28;45528;-79
2022/10/25 15:05:42;;;;;;;;;3.00;3.00;;;;;;;;5011555;28;45334;-80
2022/10/25 15:08:15;;;;;;;;;3.00;1.00;;;;;;;;4997162;28;47124;-80
2022/10/25 15:10:44;;;;;;;;;4.00;2.75;;;;;;;;5005848;28;45700;-81
2022/10/25 15:13:19;;;;;;;;;3.50;2.75;;;;;;;;5009436;28;45590;-81
2022/10/25 15:15:45;;;;;;;;;7.25;3.00;;;;;;;;5024402;28;45835;-79
2022/10/25 15:18:29;;;;;;;;;3.75;1.75;;;;;;;;5005890;28;45400;-78
2022/10/25 15:21:24;;;;;;;;;1.75;1.75;;;;;;;;5005181;28;45538;-79
2022/10/25 15:24:15;;;;;;;;;3.00;2.00;;;;;;;;4971394;28;45539;-82